createdAt,value
2023-07-14T00:02:32.760Z,20.40
2023-07-14T00:05:36.279Z,20.40
2023-07-14T00:08:21.848Z,20.40
2023-07-14T00:11:24.816Z,20.30
2023-07-14T00:14:10.301Z,20.40
2023-07-14T00:16:56.086Z,20.30
2023-07-14T00:19:42.049Z,20.30
2023-07-14T00:22:27.988Z,20.20
2023-07-14T00:25:14.311Z,20.20
2023-07-14T00:27:59.715Z,20.10
2023-07-14T00:30:46.153Z,20.10
2023-07-14T00:33:31.787Z,20.10
2023-07-14T00:36:17.489Z,20.10
2023-07-14T00:39:03.152Z,20.10
2023-07-14T00:41:49.161Z,20.10
2023-07-14T00:44:36.412Z,20.10
2023-07-14T00:47:30.400Z,20.10
2023-07-14T00:50:51.432Z,20.20
2023-07-14T00:53:42.222Z,20.10
2023-07-14T00:56:43.488Z,20.20
2023-07-14T00:59:34.782Z,20.20
2023-07-14T01:02:24.896Z,20.10
2023-07-14T01:05:10.376Z,20.10
2023-07-14T01:07:56.595Z,20.10
2023-07-14T01:10:42.162Z,20.10
2023-07-14T01:13:29.882Z,20.10
2023-07-14T01:16:16.752Z,20.10
2023-07-14T01:19:07.610Z,20.10
2023-07-14T01:22:27.652Z,20.10
2023-07-14T01:25:37.237Z,20.10
2023-07-14T01:28:22.882Z,20.00
2023-07-14T01:31:21.498Z,20.00
2023-07-14T01:34:07.194Z,20.00
2023-07-14T01:36:52.684Z,20.00
2023-07-14T01:39:38.234Z,20.00
2023-07-14T01:42:23.605Z,20.00
2023-07-14T01:45:19.305Z,20.00
2023-07-14T01:48:11.323Z,20.00
2023-07-14T01:51:07.656Z,19.90
2023-07-14T01:54:31.021Z,19.80
2023-07-14T01:57:22.616Z,19.70
2023-07-14T02:00:10.011Z,19.70
2023-07-14T02:02:56.054Z,19.70
2023-07-14T02:05:41.927Z,19.70
2023-07-14T02:08:28.045Z,19.70
2023-07-14T02:11:21.089Z,19.70
2023-07-14T02:14:06.372Z,19.80
2023-07-14T02:16:53.203Z,19.80
2023-07-14T02:19:39.035Z,19.80
2023-07-14T02:22:25.145Z,19.90
2023-07-14T02:25:18.455Z,19.80
2023-07-14T02:28:04.376Z,19.80
2023-07-14T02:30:59.247Z,19.90
2023-07-14T02:33:48.843Z,19.80
2023-07-14T02:37:05.155Z,19.80
2023-07-14T02:39:51.017Z,19.80
2023-07-14T02:42:41.196Z,19.80
2023-07-14T02:45:28.021Z,19.90
2023-07-14T02:48:22.163Z,19.90
2023-07-14T02:51:08.687Z,19.90
2023-07-14T02:53:54.367Z,19.90
2023-07-14T02:56:39.845Z,19.90
2023-07-14T02:59:25.252Z,19.90
2023-07-14T03:02:10.741Z,19.90
2023-07-14T03:04:55.956Z,19.90
2023-07-14T03:07:41.662Z,19.90
2023-07-14T03:10:27.671Z,19.90
2023-07-14T03:13:15.496Z,20.00
2023-07-14T03:16:00.905Z,20.00
2023-07-14T03:18:46.648Z,20.00
2023-07-14T03:21:32.399Z,20.00
2023-07-14T03:24:17.855Z,20.00
2023-07-14T03:27:03.154Z,20.00
2023-07-14T03:29:48.634Z,20.00
2023-07-14T03:32:34.392Z,20.00
2023-07-14T03:35:20.388Z,20.10
2023-07-14T03:38:06.242Z,20.10
2023-07-14T03:40:51.978Z,20.00
2023-07-14T03:43:37.369Z,20.00
2023-07-14T03:46:23.229Z,20.00
2023-07-14T03:49:08.941Z,19.90
2023-07-14T03:51:54.429Z,19.90
2023-07-14T03:54:39.884Z,19.90
2023-07-14T03:57:25.228Z,19.90
2023-07-14T04:00:12.667Z,19.80
2023-07-14T04:02:58.406Z,19.80
2023-07-14T04:05:49.874Z,19.80
2023-07-14T04:08:40.737Z,19.80
2023-07-14T04:11:27.016Z,19.70
2023-07-14T04:14:12.736Z,19.70
2023-07-14T04:16:58.543Z,19.60
2023-07-14T04:19:44.396Z,19.60
2023-07-14T04:22:29.915Z,19.50
2023-07-14T04:25:15.842Z,19.50
2023-07-14T04:28:01.171Z,19.50
2023-07-14T04:30:56.110Z,19.40
2023-07-14T04:33:52.102Z,19.40
2023-07-14T04:36:37.439Z,19.40
2023-07-14T04:39:24.537Z,19.40
2023-07-14T04:42:11.680Z,19.40
2023-07-14T04:44:57.276Z,19.40
2023-07-14T04:47:44.209Z,19.40
2023-07-14T04:50:29.715Z,19.40
2023-07-14T04:53:16.685Z,19.50
2023-07-14T04:56:01.987Z,19.50
2023-07-14T04:58:47.207Z,19.50
2023-07-14T05:01:32.782Z,19.50
2023-07-14T05:04:18.879Z,19.50
2023-07-14T05:07:04.602Z,19.50
2023-07-14T05:09:50.287Z,19.50
2023-07-14T05:12:36.387Z,19.60
2023-07-14T05:15:24.839Z,19.60
2023-07-14T05:18:10.756Z,19.70
2023-07-14T05:21:03.664Z,19.70
2023-07-14T05:23:49.027Z,19.80
2023-07-14T05:26:34.533Z,19.80
2023-07-14T05:29:20.074Z,19.90
2023-07-14T05:32:06.023Z,20.00
2023-07-14T05:34:53.161Z,20.10
2023-07-14T05:37:39.837Z,20.20
2023-07-14T05:40:25.770Z,20.10
2023-07-14T05:43:11.363Z,20.20
2023-07-14T05:45:56.769Z,20.20
2023-07-14T05:48:42.705Z,20.20
2023-07-14T05:51:28.571Z,20.20
2023-07-14T05:54:13.972Z,20.20
2023-07-14T05:57:00.182Z,20.20
2023-07-14T05:59:45.811Z,20.20
2023-07-14T06:02:31.161Z,20.10
2023-07-14T06:05:17.697Z,20.10
2023-07-14T06:08:03.874Z,20.10
2023-07-14T06:10:50.934Z,20.10
2023-07-14T06:13:36.516Z,20.10
2023-07-14T06:16:22.415Z,20.10
2023-07-14T06:19:07.891Z,20.20
2023-07-14T06:21:53.433Z,20.20
2023-07-14T06:24:39.316Z,20.20
2023-07-14T06:27:25.348Z,20.20
2023-07-14T06:30:11.317Z,20.20
2023-07-14T06:32:56.870Z,20.20
2023-07-14T06:35:42.548Z,20.30
2023-07-14T06:38:28.746Z,20.30
2023-07-14T06:41:14.690Z,20.30
2023-07-14T06:44:08.584Z,20.40
2023-07-14T06:47:01.548Z,20.40
2023-07-14T06:49:47.498Z,20.50
2023-07-14T06:52:33.281Z,20.50
2023-07-14T06:55:18.517Z,20.60
2023-07-14T06:58:03.909Z,20.70
2023-07-14T07:00:49.759Z,20.80
2023-07-14T07:03:35.205Z,20.90
2023-07-14T07:06:20.858Z,21.00
2023-07-14T07:09:07.720Z,21.20
2023-07-14T07:11:53.627Z,21.30
2023-07-14T07:14:38.997Z,21.40
2023-07-14T07:17:24.488Z,21.50
2023-07-14T07:20:10.680Z,21.70
2023-07-14T07:22:56.432Z,21.80
2023-07-14T07:25:54.284Z,21.80
2023-07-14T07:28:40.032Z,21.90
2023-07-14T07:31:25.630Z,21.90
2023-07-14T07:34:10.923Z,22.00
2023-07-14T07:36:56.555Z,22.10
2023-07-14T07:39:42.003Z,22.10
2023-07-14T07:42:29.221Z,22.20
2023-07-14T07:45:15.035Z,22.30
2023-07-14T07:48:00.400Z,22.40
2023-07-14T07:50:46.291Z,22.50
2023-07-14T07:53:32.726Z,22.70
2023-07-14T07:56:18.079Z,22.80
2023-07-14T07:59:03.852Z,22.90
2023-07-14T08:01:49.575Z,22.90
2023-07-14T08:04:35.764Z,23.00
2023-07-14T08:07:21.494Z,23.10
2023-07-14T08:10:08.481Z,23.20
2023-07-14T08:12:54.285Z,23.30
2023-07-14T08:15:39.768Z,23.50
2023-07-14T08:18:26.652Z,23.70
2023-07-14T08:21:12.253Z,23.90
2023-07-14T08:23:57.704Z,24.10
2023-07-14T08:26:43.085Z,24.30
2023-07-14T08:29:28.451Z,24.50
2023-07-14T08:32:13.919Z,24.60
2023-07-14T08:34:59.482Z,24.70
2023-07-14T08:37:44.809Z,24.70
2023-07-14T08:40:52.791Z,24.70
2023-07-14T08:44:22.218Z,24.80
2023-07-14T08:47:51.984Z,24.90
2023-07-14T08:50:39.346Z,25.10
2023-07-14T08:53:30.840Z,25.30
2023-07-14T08:56:19.102Z,25.40
2023-07-14T08:59:06.742Z,25.50
2023-07-14T09:01:57.729Z,25.60
2023-07-14T09:04:46.302Z,25.80
2023-07-14T09:07:31.956Z,25.90
2023-07-14T09:10:17.968Z,25.90
2023-07-14T09:13:19.387Z,25.90
2023-07-14T09:16:06.634Z,25.90
2023-07-14T09:19:06.167Z,25.90
2023-07-14T09:22:26.631Z,26.10
2023-07-14T09:25:43.425Z,26.10
2023-07-14T09:28:49.107Z,26.30
2023-07-14T09:31:58.028Z,26.50
2023-07-14T09:35:26.506Z,26.70
2023-07-14T09:38:22.867Z,26.90
2023-07-14T09:41:11.000Z,26.90
2023-07-14T09:43:58.954Z,27.10
2023-07-14T09:46:49.120Z,27.30
2023-07-14T09:49:46.657Z,27.40
2023-07-14T09:52:32.258Z,27.50
2023-07-14T09:55:18.667Z,27.60
2023-07-14T09:58:11.588Z,27.70
2023-07-14T10:01:07.487Z,27.80
2023-07-14T10:03:54.719Z,27.90
2023-07-14T10:06:40.221Z,27.90
2023-07-14T10:09:26.134Z,28.10
2023-07-14T10:12:12.549Z,28.10
2023-07-14T10:14:57.865Z,28.20
2023-07-14T10:17:43.230Z,28.20
2023-07-14T10:20:32.064Z,28.20
2023-07-14T10:23:18.310Z,28.20
2023-07-14T10:26:07.099Z,28.40
2023-07-14T10:28:52.970Z,28.60
2023-07-14T10:32:09.910Z,29.00
2023-07-14T10:35:20.897Z,29.20
2023-07-14T10:38:17.497Z,29.30
2023-07-14T10:41:07.373Z,29.20
2023-07-14T10:44:04.048Z,29.20
2023-07-14T10:46:58.243Z,29.80
2023-07-14T10:49:53.552Z,30.80
2023-07-14T10:52:43.818Z,30.70
2023-07-14T10:55:35.871Z,30.00
2023-07-14T11:00:10.673Z,29.40
2023-07-14T11:03:36.718Z,28.70
2023-07-14T11:06:30.212Z,28.30
2023-07-14T11:09:15.962Z,28.10
2023-07-14T11:12:10.887Z,27.90
2023-07-14T11:15:14.998Z,27.70
2023-07-14T11:18:34.363Z,27.40
2023-07-14T11:22:05.857Z,27.30
2023-07-14T11:25:22.679Z,27.20
2023-07-14T11:29:05.753Z,27.10
2023-07-14T11:32:00.115Z,27.00
2023-07-14T11:35:21.096Z,26.90
2023-07-14T11:38:37.888Z,26.70
2023-07-14T11:41:24.682Z,26.70
2023-07-14T11:44:18.469Z,26.60
2023-07-14T11:47:31.400Z,26.70
2023-07-14T11:50:25.689Z,26.60
2023-07-14T11:53:22.041Z,26.60
2023-07-14T11:56:26.244Z,26.90
2023-07-14T11:59:27.049Z,27.50
2023-07-14T12:02:47.075Z,27.80
2023-07-14T12:05:39.509Z,27.80
2023-07-14T12:08:25.904Z,27.60
2023-07-14T12:11:42.663Z,27.40
2023-07-14T12:14:38.898Z,27.10
2023-07-14T12:17:45.942Z,26.70
2023-07-14T12:20:36.218Z,26.50
2023-07-14T12:23:29.061Z,26.30
2023-07-14T12:26:24.913Z,26.10
2023-07-14T12:29:17.821Z,26.10
2023-07-14T12:32:03.529Z,26.00
2023-07-14T12:34:49.225Z,26.00
2023-07-14T12:37:35.005Z,26.00
2023-07-14T12:40:26.675Z,25.90
2023-07-14T12:43:39.444Z,25.80
2023-07-14T12:46:38.350Z,25.90
2023-07-14T12:49:40.216Z,26.60
2023-07-14T12:52:35.009Z,27.10
2023-07-14T12:55:25.480Z,27.30
2023-07-14T12:58:24.609Z,27.70
2023-07-14T13:01:09.921Z,27.70
2023-07-14T13:03:55.457Z,27.50
2023-07-14T13:06:44.384Z,27.20
2023-07-14T13:09:30.582Z,27.00
2023-07-14T13:12:17.088Z,26.90
2023-07-14T13:15:04.493Z,26.80
2023-07-14T13:17:51.225Z,26.60
2023-07-14T13:20:42.286Z,26.50
2023-07-14T13:23:31.862Z,26.30
2023-07-14T13:26:19.495Z,26.00
2023-07-14T13:29:16.281Z,25.80
2023-07-14T13:32:29.292Z,25.70
2023-07-14T13:35:33.947Z,25.70
2023-07-14T13:38:20.813Z,25.70
2023-07-14T13:41:20.975Z,25.80
2023-07-14T13:44:46.215Z,25.80
2023-07-14T13:47:55.413Z,25.90
2023-07-14T13:50:40.855Z,25.90
2023-07-14T13:53:27.651Z,25.90
2023-07-14T13:56:21.015Z,25.90
2023-07-14T13:59:17.264Z,25.80
2023-07-14T14:02:41.049Z,25.80
2023-07-14T14:05:37.482Z,25.60
2023-07-14T14:08:23.302Z,25.60
2023-07-14T14:11:08.791Z,25.40
2023-07-14T14:13:54.686Z,25.40
2023-07-14T14:16:40.659Z,25.30
2023-07-14T14:19:27.453Z,25.30
2023-07-14T14:22:12.896Z,25.20
2023-07-14T14:24:58.640Z,25.20
2023-07-14T14:27:50.083Z,25.20
2023-07-14T14:30:44.513Z,25.20
2023-07-14T14:33:32.993Z,25.20
2023-07-14T14:36:18.481Z,25.10
2023-07-14T14:39:04.039Z,25.00
2023-07-14T14:41:50.002Z,25.00
2023-07-14T14:44:35.529Z,24.90
2023-07-14T14:47:21.007Z,24.90
2023-07-14T14:50:10.575Z,24.80
2023-07-14T14:52:56.405Z,24.70
2023-07-14T14:55:44.816Z,24.60
2023-07-14T14:58:33.723Z,24.60
2023-07-14T15:01:31.436Z,24.60
2023-07-14T15:04:26.333Z,24.70
2023-07-14T15:07:15.386Z,24.70
2023-07-14T15:10:01.088Z,24.80
2023-07-14T15:12:49.787Z,25.00
2023-07-14T15:15:37.465Z,25.20
2023-07-14T15:18:23.542Z,25.40
2023-07-14T15:21:18.647Z,25.50
2023-07-14T15:24:05.008Z,25.50
2023-07-14T15:26:50.958Z,25.40
2023-07-14T15:29:36.365Z,25.40
2023-07-14T15:32:21.992Z,25.30
2023-07-14T15:35:31.040Z,25.30
2023-07-14T15:38:23.004Z,25.20
2023-07-14T15:41:19.857Z,25.20
2023-07-14T15:44:24.363Z,25.20
2023-07-14T15:47:17.344Z,25.30
2023-07-14T15:50:04.032Z,25.30
2023-07-14T15:52:55.798Z,25.30
2023-07-14T15:55:41.272Z,25.20
2023-07-14T15:58:26.987Z,25.10
2023-07-14T16:04:06.608Z,25.10
2023-07-14T16:06:55.724Z,25.10
2023-07-14T16:09:42.718Z,25.10
2023-07-14T16:12:28.319Z,25.00
2023-07-14T16:15:25.933Z,25.00
2023-07-14T16:18:12.967Z,25.00
2023-07-14T16:20:58.791Z,25.00
2023-07-14T16:23:44.138Z,25.00
2023-07-14T16:26:29.784Z,24.90
2023-07-14T16:29:15.526Z,24.90
2023-07-14T16:32:01.420Z,24.80
2023-07-14T16:34:50.218Z,24.70
2023-07-14T16:37:35.825Z,24.60
2023-07-14T16:40:30.419Z,24.50
2023-07-14T16:43:17.592Z,24.30
2023-07-14T16:46:03.184Z,24.30
2023-07-14T16:48:49.113Z,24.30
2023-07-14T16:51:34.560Z,24.20
2023-07-14T16:54:34.938Z,24.20
2023-07-14T16:57:32.406Z,24.10
2023-07-14T17:00:27.737Z,24.00
2023-07-14T17:03:22.973Z,24.00
2023-07-14T17:06:08.536Z,23.90
2023-07-14T17:08:54.547Z,23.80
2023-07-14T17:11:40.093Z,23.80
2023-07-14T17:14:30.361Z,23.70
2023-07-14T17:17:16.625Z,23.70
2023-07-14T17:20:02.595Z,23.60
2023-07-14T17:22:49.379Z,23.60
2023-07-14T17:25:35.322Z,23.60
2023-07-14T17:28:26.535Z,23.60
2023-07-14T17:31:12.412Z,23.50
2023-07-14T17:33:58.098Z,23.50
2023-07-14T17:36:44.195Z,23.40
2023-07-14T17:39:46.301Z,23.40
2023-07-14T17:42:33.824Z,23.30
2023-07-14T17:45:23.962Z,23.30
2023-07-14T17:48:09.920Z,23.20
2023-07-14T17:51:00.682Z,23.20
2023-07-14T17:53:46.358Z,23.10
2023-07-14T17:56:32.065Z,23.00
2023-07-14T17:59:23.317Z,22.90
2023-07-14T18:02:29.644Z,22.90
2023-07-14T18:05:20.588Z,22.70
2023-07-14T18:08:12.452Z,22.70
2023-07-14T18:11:04.434Z,22.60
2023-07-14T18:13:50.132Z,22.60
2023-07-14T18:16:35.666Z,22.50
2023-07-14T18:19:21.639Z,22.40
2023-07-14T18:22:28.098Z,22.30
2023-07-14T18:25:21.763Z,22.20
2023-07-14T18:28:33.210Z,22.20
2023-07-14T18:31:21.497Z,22.10
2023-07-14T18:34:07.298Z,22.00
2023-07-14T18:36:52.764Z,21.90
2023-07-14T18:39:38.771Z,21.90
2023-07-14T18:42:26.103Z,21.80
2023-07-14T18:45:22.120Z,21.80
2023-07-14T18:48:22.742Z,21.80
2023-07-14T18:51:31.475Z,21.70
2023-07-14T18:54:23.920Z,21.60
2023-07-14T18:57:18.288Z,21.50
2023-07-14T19:00:04.453Z,21.50
2023-07-14T19:02:52.688Z,21.40
2023-07-14T19:05:38.601Z,21.40
2023-07-14T19:08:25.142Z,21.30
2023-07-14T19:11:18.523Z,21.30
2023-07-14T19:14:04.003Z,21.20
2023-07-14T19:16:50.226Z,21.20
2023-07-14T19:19:35.935Z,21.20
2023-07-14T19:22:22.157Z,21.10
2023-07-14T19:25:22.992Z,21.10
2023-07-14T19:28:27.842Z,21.00
2023-07-14T19:31:29.714Z,21.00
2023-07-14T19:34:31.245Z,20.90
2023-07-14T19:37:17.584Z,20.90
2023-07-14T19:40:03.886Z,20.80
2023-07-14T19:42:50.954Z,20.80
2023-07-14T19:45:36.305Z,20.80
2023-07-14T19:48:23.133Z,20.70
2023-07-14T19:51:25.060Z,20.70
2023-07-14T19:54:18.919Z,20.60
2023-07-14T19:57:16.392Z,20.60
2023-07-14T20:00:01.856Z,20.60
2023-07-14T20:02:47.673Z,20.50
2023-07-14T20:05:33.420Z,20.40
2023-07-14T20:08:23.095Z,20.40
2023-07-14T20:11:15.810Z,20.40
2023-07-14T20:14:02.461Z,20.30
2023-07-14T20:16:48.146Z,20.30
2023-07-14T20:19:34.125Z,20.30
2023-07-14T20:22:23.089Z,20.20
2023-07-14T20:25:13.983Z,20.20
2023-07-14T20:27:59.574Z,20.10
2023-07-14T20:30:54.641Z,20.10
2023-07-14T20:33:41.520Z,20.00
2023-07-14T20:36:28.036Z,20.00
2023-07-14T20:39:14.146Z,19.90
2023-07-14T20:41:59.808Z,19.90
2023-07-14T20:44:46.396Z,19.90
2023-07-14T20:47:32.168Z,19.80
2023-07-14T20:50:17.917Z,19.80
2023-07-14T20:53:22.100Z,19.70
2023-07-14T20:56:17.089Z,19.70
2023-07-14T20:59:02.796Z,19.70
2023-07-14T21:01:48.658Z,19.60
2023-07-14T21:04:34.685Z,19.50
2023-07-14T21:07:20.279Z,19.50
2023-07-14T21:10:06.442Z,19.40
2023-07-14T21:12:52.392Z,19.30
2023-07-14T21:15:37.724Z,19.20
2023-07-14T21:18:27.042Z,19.20
2023-07-14T21:21:31.703Z,19.10
2023-07-14T21:24:18.104Z,19.10
2023-07-14T21:27:03.651Z,19.00
2023-07-14T21:29:49.309Z,19.00
2023-07-14T21:32:34.815Z,19.00
2023-07-14T21:35:22.006Z,18.90
2023-07-14T21:38:15.400Z,18.80
2023-07-14T21:41:03.821Z,18.70
2023-07-14T21:43:53.001Z,18.60
2023-07-14T21:46:38.644Z,18.60
2023-07-14T21:49:24.906Z,18.50
2023-07-14T21:52:20.767Z,18.50
2023-07-14T21:55:17.758Z,18.40
2023-07-14T21:58:13.037Z,18.40
2023-07-14T22:01:01.808Z,18.30
2023-07-14T22:03:47.275Z,18.30
2023-07-14T22:06:32.546Z,18.30
2023-07-14T22:09:18.355Z,18.20
2023-07-14T22:12:04.845Z,18.10
2023-07-14T22:14:50.745Z,18.00
2023-07-14T22:17:36.442Z,18.00
2023-07-14T22:20:22.395Z,18.00
2023-07-14T22:23:14.214Z,17.90
2023-07-14T22:25:59.995Z,17.80
2023-07-14T22:28:47.325Z,17.90
2023-07-14T22:31:33.066Z,17.90
2023-07-14T22:34:19.312Z,17.90
2023-07-14T22:37:05.377Z,17.90
2023-07-14T22:39:51.133Z,17.80
2023-07-14T22:42:36.378Z,17.70
2023-07-14T22:45:22.608Z,17.70
2023-07-14T22:48:13.649Z,17.60
2023-07-14T22:51:02.656Z,17.60
2023-07-14T22:53:48.716Z,17.50
2023-07-14T22:56:34.263Z,17.50
2023-07-14T22:59:20.123Z,17.40
2023-07-14T23:02:13.268Z,17.40
2023-07-14T23:04:58.899Z,17.30
2023-07-14T23:07:47.330Z,17.30
2023-07-14T23:10:32.652Z,17.20
2023-07-14T23:13:33.098Z,17.20
2023-07-14T23:16:22.518Z,17.10
2023-07-14T23:19:08.073Z,17.10
2023-07-14T23:21:53.570Z,17.10
2023-07-14T23:24:39.051Z,17.00
2023-07-14T23:27:24.750Z,17.10
2023-07-14T23:30:10.715Z,17.00
2023-07-14T23:32:56.429Z,17.00
2023-07-14T23:35:44.287Z,17.00
2023-07-14T23:38:29.680Z,17.00
2023-07-14T23:41:29.247Z,16.90
2023-07-14T23:44:18.243Z,16.90
2023-07-14T23:47:03.760Z,16.90
2023-07-14T23:49:49.008Z,17.00
2023-07-14T23:52:34.584Z,16.90
2023-07-14T23:55:21.982Z,16.90
2023-07-14T23:58:08.100Z,16.80
